Главная страница
METAR-TAF:

METAR-TAF

Аэропорты :

Гаррисберг / Middletown, Пенсильвания, США

широта: 40-11-37N, долгота: 076-45-48W, высота над уровнем моря: 95 м

Текущие метеонаблюдения

Эта сводка был подготовлена 36 минут назад, в 23:56 UTC
Штиль
Температура 21°C
Влажность 69%
Давление 1017 hPa
Видимость: 16.1 км
небольшая облачность на высоте 4000 фута
Отдельные облака на высоте 25000 фута

METAR: KMDT 232356Z 00000KT 10SM FEW040 SCT250 21/15 A3004 RMK AO2 SLP170 T02110150 10256 20206 53004

Время: 20:32 (00:32 UTC)

Прогноз

Эта сводка был подготовлена 43 минут назад, в 23:49 UTC
Прогноз действительный с 24-го 00 UTC до 24-го 24 UTC
Ветер 5 Узел от северо-западный
Видимость: 10 км
ясное небо
С 24-го 1330 UTC
Ветер 5 Узел от северный
Видимость: 10 км
ясное небо

TAF: KMDT 232349Z 2400/2424 31005KT P6SM SKC FM241330 35005KT P6SM SKC

Метеонаблюдения и прогнозы для более 4000 аэропортов (сводки METAR и TAF).

Имеющиеся станции представлены на карте желтыми и красными точками.

Чтобы увидеть название станции, наведите на нее мышь.

Затем щелкните, чтобы увидеть метеонаблюдения и метеопрогнозы.

Управление картой: чтобы увеличить масштаб, щелкните зеленые кнопки с черным крестиком; чтобы уменьшить масштаб, щелкните зеленую кнопку с тире; для просмотра соседних карт щелкайте зеленые стрелки.


METAR-TAF: